Time;durP1;ratioP1;P1;durP2;ratioP2;P2;SDS_P1;SDS_P2;PMS_P1;PMS_P2;Temp;Humidity;BMP_temperature;BMP_pressure;BME280_temperature;BME280_humidity;BME280_pressure;Samples;Min_cycle;Max_cycle;Signal;HPM_P1;HPM_P2
2022/02/24 00:02:18;;;;;;;4.85;2.10;;;18.20;44.50;;;;;;5029986;28;20230;-81
2022/02/24 00:04:44;;;;;;;4.20;1.75;;;18.30;44.20;;;;;;5047049;28;20208;-82
2022/02/24 00:07:10;;;;;;;3.38;1.80;;;18.30;44.20;;;;;;5025753;28;20161;-82
2022/02/24 00:09:36;;;;;;;3.40;1.80;;;18.30;44.40;;;;;;5041076;28;20164;-82
2022/02/24 00:12:03;;;;;;;3.28;1.70;;;18.30;44.50;;;;;;5057609;28;20721;-82
2022/02/24 00:14:29;;;;;;;2.58;1.63;;;18.30;44.40;;;;;;5057738;28;20180;-82
2022/02/24 00:16:54;;;;;;;6.38;1.90;;;18.30;44.40;;;;;;5039948;28;20185;-82
2022/02/24 00:19:23;;;;;;;3.22;1.52;;;18.20;44.50;;;;;;5022968;28;20172;-82
2022/02/24 00:21:52;;;;;;;4.43;1.50;;;18.30;44.40;;;;;;5021956;28;20181;-82
2022/02/24 00:24:20;;;;;;;4.63;1.80;;;18.20;44.60;;;;;;5022177;28;20663;-82
2022/02/24 00:26:49;;;;;;;3.30;1.80;;;18.20;44.40;;;;;;5039311;28;20247;-82
2022/02/24 00:29:17;;;;;;;4.10;1.63;;;18.30;44.50;;;;;;5005506;28;20223;-82
2022/02/24 00:31:43;;;;;;;4.82;1.85;;;18.30;44.50;;;;;;5039724;28;20276;-82
2022/02/24 00:34:08;;;;;;;4.00;1.67;;;18.20;44.50;;;;;;5039306;28;20654;-82
2022/02/24 00:36:34;;;;;;;2.92;1.77;;;18.20;44.50;;;;;;5022557;28;20202;-82
2022/02/24 00:39:00;;;;;;;3.50;1.80;;;18.20;45.10;;;;;;5039379;28;20181;-83
2022/02/24 00:41:25;;;;;;;3.72;1.60;;;18.20;44.70;;;;;;5023330;28;20168;-82
2022/02/24 00:43:51;;;;;;;4.03;2.13;;;18.20;44.70;;;;;;5022686;28;20169;-82
2022/02/24 00:46:17;;;;;;;3.60;1.98;;;18.20;44.70;;;;;;5039158;28;20218;-82
2022/02/24 00:48:42;;;;;;;4.13;1.80;;;18.20;44.60;;;;;;5038976;28;20158;-82
2022/02/24 00:51:08;;;;;;;2.95;1.80;;;18.20;44.60;;;;;;5055590;28;20164;-82
2022/02/24 00:53:33;;;;;;;5.13;1.85;;;18.20;44.60;;;;;;5039001;28;20164;-82
2022/02/24 00:55:59;;;;;;;4.15;1.70;;;18.20;44.60;;;;;;5073288;28;20206;-82
2022/02/24 00:58:26;;;;;;;6.28;1.80;;;18.20;44.70;;;;;;5055488;28;20189;-82
2022/02/24 01:00:54;;;;;;;2.85;1.55;;;18.10;44.80;;;;;;5021463;28;20185;-82
2022/02/24 01:03:24;;;;;;;2.90;1.50;;;18.20;44.80;;;;;;5005263;28;20195;-82
2022/02/24 01:05:50;;;;;;;5.00;1.90;;;18.20;44.70;;;;;;5021738;28;20554;-82
2022/02/24 01:08:16;;;;;;;2.08;1.48;;;18.20;44.60;;;;;;5021991;28;20270;-82
2022/02/24 01:10:42;;;;;;;3.20;2.00;;;18.10;44.60;;;;;;5022582;28;20260;-82
2022/02/24 01:13:07;;;;;;;2.35;1.50;;;18.10;44.70;;;;;;5039016;28;20169;-82
2022/02/24 01:15:34;;;;;;;2.45;1.50;;;18.10;44.60;;;;;;5038653;28;20162;-82
2022/02/24 01:18:00;;;;;;;4.45;1.83;;;18.20;44.80;;;;;;5038734;28;20250;-84
2022/02/24 01:20:25;;;;;;;3.60;1.75;;;18.10;44.90;;;;;;5073386;28;20158;-82
2022/02/24 01:22:51;;;;;;;3.08;1.80;;;18.10;44.90;;;;;;5055127;28;20252;-82
2022/02/24 01:25:19;;;;;;;5.78;1.77;;;18.10;44.80;;;;;;5073024;28;20160;-82
2022/02/24 01:27:46;;;;;;;4.80;1.33;;;18.10;44.90;;;;;;5073384;28;20192;-82
2022/02/24 01:30:12;;;;;;;3.78;1.63;;;18.10;44.80;;;;;;5072938;28;20310;-82
2022/02/24 01:32:41;;;;;;;3.83;1.75;;;18.10;45.00;;;;;;5056106;28;20201;-82
2022/02/24 01:35:10;;;;;;;2.63;1.60;;;18.10;45.00;;;;;;5008968;28;20192;-82
2022/02/24 01:37:39;;;;;;;3.58;1.73;;;18.10;44.80;;;;;;5009459;28;20235;-82
2022/02/24 01:40:08;;;;;;;3.42;1.98;;;18.10;44.80;;;;;;5025350;28;20181;-82
2022/02/24 01:42:37;;;;;;;4.80;1.70;;;18.10;44.90;;;;;;5008949;28;20223;-82
2022/02/24 01:45:03;;;;;;;3.53;1.83;;;18.10;45.00;;;;;;5025114;28;20262;-82
2022/02/24 01:47:34;;;;;;;4.00;1.60;;;18.10;45.00;;;;;;5042519;28;20162;-82
2022/02/24 01:50:02;;;;;;;3.47;1.80;;;18.00;44.90;;;;;;5025827;28;20189;-82
2022/02/24 01:52:30;;;;;;;4.50;1.55;;;18.00;45.00;;;;;;5025372;28;20632;-82
2022/02/24 01:54:55;;;;;;;3.40;1.50;;;18.00;45.10;;;;;;5025193;28;20187;-82
2022/02/24 01:57:22;;;;;;;3.28;1.75;;;18.00;45.20;;;;;;5058660;28;20272;-82
2022/02/24 01:59:49;;;;;;;4.80;1.77;;;18.00;45.00;;;;;;5042392;28;20157;-82
2022/02/24 02:02:17;;;;;;;3.78;2.20;;;18.00;45.10;;;;;;5008259;28;20578;-82
2022/02/24 02:04:44;;;;;;;3.47;1.45;;;18.10;45.20;;;;;;5041091;28;20238;-82
2022/02/24 02:07:12;;;;;;;2.85;1.75;;;18.00;45.00;;;;;;5008795;28;20272;-82
2022/02/24 02:09:39;;;;;;;4.30;1.30;;;18.00;45.00;;;;;;5008718;28;20209;-82
2022/02/24 02:12:06;;;;;;;3.03;1.50;;;18.00;45.10;;;;;;5024478;28;20224;-82
2022/02/24 02:14:35;;;;;;;3.38;1.50;;;18.00;45.00;;;;;;4991991;28;20240;-82
2022/02/24 02:17:02;;;;;;;3.00;1.42;;;18.00;45.20;;;;;;5008740;28;20236;-82
2022/02/24 02:19:29;;;;;;;3.25;2.00;;;18.00;45.10;;;;;;5024630;28;20207;-82
2022/02/24 02:21:54;;;;;;;4.32;1.80;;;18.00;45.10;;;;;;5025242;28;20221;-82
2022/02/24 02:24:20;;;;;;;2.25;1.48;;;18.00;45.00;;;;;;5041604;28;20162;-82
2022/02/24 02:26:49;;;;;;;3.90;1.50;;;18.00;45.00;;;;;;5024979;28;20201;-82
2022/02/24 02:29:15;;;;;;;3.75;1.88;;;18.00;45.20;;;;;;5058618;28;20150;-82
2022/02/24 02:31:40;;;;;;;2.72;1.75;;;18.00;45.30;;;;;;5058037;28;20217;-82
2022/02/24 02:34:10;;;;;;;3.05;1.60;;;17.90;45.40;;;;;;5024766;28;20246;-82
2022/02/24 02:36:37;;;;;;;4.40;1.88;;;17.90;45.40;;;;;;5008386;28;20258;-82
2022/02/24 02:39:05;;;;;;;3.63;1.50;;;17.80;45.50;;;;;;5007793;28;20272;-82
2022/02/24 02:41:32;;;;;;;3.97;1.70;;;17.90;45.30;;;;;;5008002;28;20181;-82
2022/02/24 02:43:58;;;;;;;2.10;1.60;;;17.90;45.50;;;;;;4991020;28;20204;-82
2022/02/24 02:46:26;;;;;;;5.90;1.85;;;17.90;45.40;;;;;;5024536;28;20628;-82
2022/02/24 02:48:53;;;;;;;4.10;1.33;;;18.00;45.40;;;;;;5007324;28;20181;-82
2022/02/24 02:51:20;;;;;;;3.47;1.75;;;17.90;45.50;;;;;;5024420;28;20192;-81
2022/02/24 02:53:48;;;;;;;3.00;1.73;;;17.90;45.60;;;;;;5024126;28;20181;-82
2022/02/24 02:56:15;;;;;;;4.43;1.67;;;17.90;45.50;;;;;;5023763;28;20548;-82
2022/02/24 02:58:43;;;;;;;3.03;1.83;;;17.90;45.50;;;;;;5023730;28;20543;-82
2022/02/24 03:01:08;;;;;;;3.20;2.00;;;17.80;45.60;;;;;;5007480;28;20700;-82
2022/02/24 03:03:34;;;;;;;2.83;1.58;;;17.90;45.50;;;;;;5040945;28;20247;-82
2022/02/24 03:06:00;;;;;;;2.38;1.40;;;17.80;45.60;;;;;;5041179;28;20166;-84
2022/02/24 03:08:27;;;;;;;4.28;1.63;;;17.80;45.70;;;;;;5040972;28;20685;-82
2022/02/24 03:10:55;;;;;;;2.58;1.65;;;17.80;45.70;;;;;;5023765;28;20264;-81
2022/02/24 03:13:21;;;;;;;2.65;1.40;;;17.90;45.80;;;;;;5023439;28;20216;-82
2022/02/24 03:15:50;;;;;;;4.93;1.70;;;17.80;45.70;;;;;;5057469;28;20185;-82
2022/02/24 03:18:16;;;;;;;1.95;1.48;;;17.80;45.70;;;;;;5023999;28;20225;-81
2022/02/24 03:20:42;;;;;;;2.38;1.50;;;17.80;45.50;;;;;;5023548;28;20187;-82
2022/02/24 03:23:09;;;;;;;3.58;1.75;;;17.80;45.80;;;;;;5040592;28;20161;-82
2022/02/24 03:25:35;;;;;;;3.47;1.80;;;17.80;45.90;;;;;;5057011;28;20566;-82
2022/02/24 03:28:02;;;;;;;3.30;1.52;;;17.80;46.00;;;;;;5057251;28;20166;-82
2022/02/24 03:30:27;;;;;;;3.30;1.80;;;17.70;45.90;;;;;;5036749;28;20221;-82
2022/02/24 03:32:53;;;;;;;2.28;1.40;;;17.80;46.10;;;;;;5037169;28;20566;-82
2022/02/24 03:35:19;;;;;;;3.42;1.30;;;17.80;45.80;;;;;;5020490;28;20190;-82
2022/02/24 03:37:45;;;;;;;3.80;1.55;;;17.80;46.00;;;;;;5020995;28;20652;-81
2022/02/24 03:40:11;;;;;;;2.92;1.80;;;17.80;46.00;;;;;;5036993;28;20632;-82
2022/02/24 03:42:37;;;;;;;2.13;1.42;;;17.80;45.90;;;;;;5053508;28;20195;-81
2022/02/24 03:45:03;;;;;;;4.82;1.95;;;17.80;45.90;;;;;;5036918;28;20260;-82
2022/02/24 03:47:28;;;;;;;2.80;1.88;;;17.80;46.00;;;;;;5037515;28;20150;-81
2022/02/24 03:49:54;;;;;;;4.03;1.88;;;17.70;46.10;;;;;;5020270;28;20759;-82
2022/02/24 03:52:20;;;;;;;3.85;1.52;;;17.80;46.10;;;;;;5036859;28;20160;-82
2022/02/24 03:54:45;;;;;;;1.98;1.60;;;17.80;45.90;;;;;;5019965;28;20169;-82
2022/02/24 03:57:11;;;;;;;3.83;1.60;;;17.80;46.00;;;;;;5036279;28;20201;-82
2022/02/24 03:59:38;;;;;;;2.28;1.30;;;17.80;46.00;;;;;;5020076;28;20159;-82
2022/02/24 04:02:06;;;;;;;2.00;1.40;;;17.80;45.80;;;;;;5019384;28;20264;-81
2022/02/24 04:04:33;;;;;;;3.67;1.73;;;17.80;46.00;;;;;;5019545;28;20197;-82
2022/02/24 04:07:00;;;;;;;3.95;1.60;;;17.80;46.10;;;;;;5019255;28;20280;-82
2022/02/24 04:09:26;;;;;;;3.35;1.60;;;17.80;46.20;;;;;;5002864;28;20259;-82
2022/02/24 04:11:52;;;;;;;4.43;1.85;;;17.70;46.10;;;;;;5036405;28;20162;-82
2022/02/24 04:14:17;;;;;;;3.08;1.50;;;17.70;46.20;;;;;;5036147;28;20165;-82
2022/02/24 04:16:43;;;;;;;3.05;1.40;;;17.70;45.90;;;;;;5020073;28;20268;-82
2022/02/24 04:19:09;;;;;;;3.63;1.42;;;17.70;45.90;;;;;;5036269;28;20165;-81
2022/02/24 04:21:35;;;;;;;3.97;1.70;;;17.70;46.00;;;;;;5036437;28;20161;-82
2022/02/24 04:24:01;;;;;;;2.50;1.50;;;17.80;46.10;;;;;;5036334;28;20180;-82
2022/02/24 04:26:28;;;;;;;4.63;1.85;;;17.70;45.90;;;;;;5053944;28;20157;-82
2022/02/24 04:28:56;;;;;;;2.53;1.48;;;17.70;46.10;;;;;;5018900;28;20189;-82
2022/02/24 04:31:23;;;;;;;2.45;1.52;;;17.70;45.90;;;;;;5002305;28;20233;-82
2022/02/24 04:33:50;;;;;;;5.22;1.70;;;17.70;45.90;;;;;;5018563;28;20201;-81
2022/02/24 04:36:18;;;;;;;4.25;1.70;;;17.70;46.20;;;;;;5002159;28;20202;-82
2022/02/24 04:38:43;;;;;;;2.55;1.40;;;17.70;46.20;;;;;;5002116;28;20214;-82
2022/02/24 04:41:09;;;;;;;2.25;1.38;;;17.70;46.10;;;;;;5053531;28;20245;-82
2022/02/24 04:43:35;;;;;;;3.53;1.60;;;17.70;46.20;;;;;;5052410;28;20204;-82
2022/02/24 04:46:02;;;;;;;3.22;1.52;;;17.70;46.10;;;;;;5052590;28;20617;-82
2022/02/24 04:48:27;;;;;;;4.20;1.48;;;17.80;46.30;;;;;;5001692;28;20174;-82
2022/02/24 04:50:53;;;;;;;2.80;1.60;;;17.70;46.10;;;;;;5052236;28;20200;-82
2022/02/24 04:53:19;;;;;;;2.17;1.60;;;17.70;46.00;;;;;;5035508;28;20162;-82
2022/02/24 04:55:44;;;;;;;2.10;1.50;;;17.70;46.10;;;;;;5035623;28;20640;-82
2022/02/24 04:58:10;;;;;;;2.80;1.38;;;17.70;46.20;;;;;;5035841;28;20190;-82
2022/02/24 05:00:36;;;;;;;2.42;1.55;;;17.70;46.30;;;;;;5035565;28;20211;-82
2022/02/24 05:03:01;;;;;;;2.72;1.58;;;17.70;46.30;;;;;;5035625;28;20154;-82
2022/02/24 05:05:27;;;;;;;3.65;1.42;;;17.70;46.40;;;;;;5019082;28;20635;-82
2022/02/24 05:07:53;;;;;;;2.63;1.40;;;17.70;46.30;;;;;;5017816;28;20166;-82
2022/02/24 05:10:18;;;;;;;2.97;1.55;;;17.70;46.50;;;;;;5052270;28;20165;-82
2022/02/24 05:12:44;;;;;;;3.92;1.85;;;17.70;46.50;;;;;;5035246;28;20240;-82
2022/02/24 05:15:10;;;;;;;2.53;1.40;;;17.70;46.60;;;;;;5035298;28;20155;-83
2022/02/24 05:17:39;;;;;;;2.95;1.50;;;17.70;46.40;;;;;;5019016;28;20202;-82
2022/02/24 05:20:07;;;;;;;3.92;1.50;;;17.60;46.50;;;;;;5035564;28;20166;-82
2022/02/24 05:22:33;;;;;;;2.08;1.50;;;17.60;46.30;;;;;;5035816;28;20151;-82
2022/02/24 05:24:59;;;;;;;2.50;1.63;;;17.70;46.60;;;;;;5035520;28;20162;-82
2022/02/24 05:27:25;;;;;;;2.90;1.50;;;17.70;46.20;;;;;;5053006;28;20550;-82
2022/02/24 05:29:51;;;;;;;3.75;1.60;;;17.80;45.80;;;;;;5051718;28;20266;-82
2022/02/24 05:32:17;;;;;;;2.70;1.13;;;17.80;45.40;;;;;;5018661;28;20245;-82
2022/02/24 05:34:43;;;;;;;3.00;1.48;;;17.90;45.20;;;;;;5034627;28;20539;-82
2022/02/24 05:37:10;;;;;;;2.78;1.40;;;17.90;45.20;;;;;;5035287;28;20197;-82
2022/02/24 05:39:36;;;;;;;1.98;1.23;;;17.90;45.20;;;;;;5052881;28;20170;-82
2022/02/24 05:42:02;;;;;;;2.60;1.52;;;17.90;45.20;;;;;;5035064;28;20177;-82
2022/02/24 05:44:27;;;;;;;3.92;1.42;;;18.00;44.90;;;;;;5035176;28;20617;-82
2022/02/24 05:46:53;;;;;;;3.80;1.40;;;18.00;45.10;;;;;;5018702;28;20166;-83
2022/02/24 05:49:19;;;;;;;2.72;1.30;;;18.00;45.10;;;;;;5018388;28;20499;-81
2022/02/24 05:51:45;;;;;;;2.15;1.10;;;18.00;44.80;;;;;;5033307;28;20162;-81
2022/02/24 05:54:11;;;;;;;2.38;1.40;;;18.10;44.80;;;;;;5033825;28;20201;-82
2022/02/24 05:56:37;;;;;;;3.80;1.30;;;18.10;44.80;;;;;;5050005;28;20178;-81
2022/02/24 05:59:03;;;;;;;1.98;1.25;;;18.10;44.70;;;;;;5018591;28;20167;-81
2022/02/24 06:01:29;;;;;;;2.38;1.40;;;18.10;44.60;;;;;;5034695;28;20162;-81
2022/02/24 06:03:55;;;;;;;1.85;1.23;;;18.10;44.70;;;;;;5051241;28;20153;-81
2022/02/24 06:06:20;;;;;;;3.15;1.27;;;18.10;44.50;;;;;;5051428;28;20167;-82
2022/02/24 06:08:46;;;;;;;2.70;1.10;;;18.10;44.60;;;;;;5035524;28;20162;-81
2022/02/24 06:11:12;;;;;;;2.05;1.30;;;18.10;44.50;;;;;;5034832;28;20262;-81
2022/02/24 06:13:37;;;;;;;3.40;1.30;;;18.10;44.20;;;;;;5034886;28;20177;-82
2022/02/24 06:16:04;;;;;;;2.38;1.25;;;18.20;44.20;;;;;;5034876;28;20241;-81
2022/02/24 06:18:29;;;;;;;2.45;1.20;;;18.20;44.10;;;;;;5052937;28;20182;-82
2022/02/24 06:20:56;;;;;;;2.35;1.35;;;18.20;44.10;;;;;;5022310;28;20165;-81
2022/02/24 06:23:22;;;;;;;1.45;1.10;;;18.20;44.10;;;;;;5053787;28;20158;-81
2022/02/24 06:25:48;;;;;;;3.90;1.48;;;18.30;43.90;;;;;;5037357;28;20211;-82
2022/02/24 06:28:14;;;;;;;1.88;1.10;;;18.20;43.90;;;;;;5053835;28;20161;-82
2022/02/24 06:30:40;;;;;;;1.75;1.08;;;18.20;43.90;;;;;;5054276;28;20226;-81
2022/02/24 06:33:06;;;;;;;1.63;1.08;;;18.20;43.90;;;;;;5037991;28;20170;-81
2022/02/24 06:35:32;;;;;;;1.95;1.17;;;18.20;43.80;;;;;;5038031;28;20158;-82
2022/02/24 06:37:58;;;;;;;2.63;1.20;;;18.30;43.90;;;;;;5037422;28;20212;-81
2022/02/24 06:40:24;;;;;;;2.45;1.33;;;18.30;43.70;;;;;;5038998;28;20154;-81
2022/02/24 06:42:50;;;;;;;2.60;1.20;;;18.30;43.70;;;;;;5039159;28;20158;-82
2022/02/24 06:45:16;;;;;;;1.10;1.00;;;18.30;43.90;;;;;;5060247;28;20181;-81
2022/02/24 06:47:42;;;;;;;2.58;0.90;;;18.30;43.90;;;;;;5043713;28;20613;-81
2022/02/24 06:50:09;;;;;;;1.55;1.10;;;18.30;43.80;;;;;;5027545;28;20155;-81
2022/02/24 06:52:36;;;;;;;1.60;1.00;;;18.30;43.70;;;;;;5059699;28;20157;-81
2022/02/24 06:55:02;;;;;;;1.45;1.10;;;18.30;43.50;;;;;;5041646;28;20188;-81
2022/02/24 06:57:28;;;;;;;1.38;1.17;;;18.30;43.50;;;;;;5056421;28;20190;-81
2022/02/24 06:59:53;;;;;;;2.22;1.40;;;18.30;43.70;;;;;;5055509;28;20201;-81
2022/02/24 07:02:20;;;;;;;3.60;1.20;;;18.30;43.50;;;;;;5055149;28;20165;-81
2022/02/24 07:04:45;;;;;;;1.70;1.20;;;18.30;43.60;;;;;;5058391;28;20150;-79
2022/02/24 07:07:11;;;;;;;1.92;1.30;;;18.30;43.40;;;;;;5062423;28;20611;-81
2022/02/24 07:09:37;;;;;;;2.55;1.10;;;18.30;43.50;;;;;;5062648;28;20150;-81
2022/02/24 07:12:03;;;;;;;1.98;1.40;;;18.30;43.50;;;;;;5057906;28;20219;-81
2022/02/24 07:14:30;;;;;;;2.35;1.33;;;18.30;43.50;;;;;;5040881;28;20161;-81
2022/02/24 07:16:56;;;;;;;2.60;1.10;;;18.30;43.30;;;;;;5039785;28;20249;-81
2022/02/24 07:19:23;;;;;;;2.17;1.25;;;18.40;43.30;;;;;;5071241;28;20151;-81
2022/02/24 07:21:49;;;;;;;1.85;1.30;;;18.30;43.30;;;;;;5037354;28;20731;-82
2022/02/24 07:24:14;;;;;;;1.90;1.30;;;18.40;43.10;;;;;;5053876;28;20206;-82
2022/02/24 07:26:40;;;;;;;2.13;1.27;;;18.40;43.30;;;;;;5037388;28;20177;-82
2022/02/24 07:29:06;;;;;;;1.50;1.27;;;18.30;43.20;;;;;;5037223;28;20157;-81
2022/02/24 07:31:34;;;;;;;1.58;1.10;;;18.40;43.30;;;;;;5052449;28;20224;-82
2022/02/24 07:34:04;;;;;;;2.22;1.15;;;18.40;43.20;;;;;;5053729;28;20185;-82
2022/02/24 07:36:32;;;;;;;2.25;1.00;;;18.30;43.20;;;;;;5054266;28;20154;-82
2022/02/24 07:38:57;;;;;;;1.63;1.13;;;18.30;43.10;;;;;;5054077;28;20189;-81
2022/02/24 07:41:23;;;;;;;2.00;1.00;;;18.40;43.00;;;;;;5054729;28;20150;-81
2022/02/24 07:43:48;;;;;;;2.38;0.95;;;18.30;43.20;;;;;;5054204;28;20629;-81
2022/02/24 07:46:20;;;;;;;3.60;1.20;;;18.40;43.00;;;;;;5020834;28;20162;-81
2022/02/24 07:48:46;;;;;;;2.83;1.23;;;18.40;42.90;;;;;;5020308;28;20186;-81
2022/02/24 07:51:12;;;;;;;1.02;0.93;;;18.40;42.80;;;;;;5055339;28;20522;-83
2022/02/24 07:53:41;;;;;;;3.95;1.42;;;18.40;42.80;;;;;;5054121;28;20605;-82
2022/02/24 07:56:07;;;;;;;3.15;1.00;;;18.40;42.90;;;;;;5054240;28;20143;-81
2022/02/24 07:58:37;;;;;;;3.63;1.15;;;18.40;42.80;;;;;;5053162;28;20606;-81
2022/02/24 08:01:10;;;;;;;1.73;1.27;;;18.40;42.90;;;;;;5018730;28;20873;-81
2022/02/24 08:03:39;;;;;;;2.10;0.98;;;18.40;43.00;;;;;;5001934;28;20641;-81
2022/02/24 08:06:09;;;;;;;2.08;1.58;;;18.40;42.90;;;;;;5034813;28;20182;-81
2022/02/24 08:08:38;;;;;;;3.30;1.02;;;18.40;42.90;;;;;;5018308;28;20182;-81
2022/02/24 08:11:07;;;;;;;4.35;1.50;;;18.40;42.80;;;;;;5001619;28;20193;-81
2022/02/24 08:13:36;;;;;;;4.32;1.23;;;18.40;42.80;;;;;;5018509;28;20243;-82
2022/02/24 08:16:05;;;;;;;1.98;0.95;;;18.40;42.80;;;;;;5003489;28;20608;-81
2022/02/24 08:18:34;;;;;;;3.72;1.30;;;18.50;42.80;;;;;;5019207;28;20217;-81
2022/02/24 08:21:02;;;;;;;2.65;1.17;;;18.50;42.80;;;;;;5003850;28;20189;-82
2022/02/24 08:23:30;;;;;;;3.00;1.25;;;18.50;42.90;;;;;;5019272;28;20190;-81
2022/02/24 08:25:59;;;;;;;3.72;1.10;;;18.50;42.80;;;;;;5002586;28;20178;-81
2022/02/24 08:28:27;;;;;;;3.22;1.48;;;18.50;42.90;;;;;;5019089;28;20532;-81
2022/02/24 08:30:53;;;;;;;3.78;1.00;;;18.40;42.60;;;;;;5002627;28;20234;-81
2022/02/24 08:33:21;;;;;;;3.17;1.38;;;18.50;42.70;;;;;;5021693;28;20186;-81
2022/02/24 08:36:06;;;;;;;2.45;1.13;;;18.50;42.60;;;;;;5010226;28;20174;-79
2022/02/24 08:38:34;;;;;;;1.25;1.00;;;18.50;42.50;;;;;;5021667;28;20304;-81
2022/02/24 08:41:01;;;;;;;2.80;1.20;;;18.60;42.60;;;;;;5004386;28;20184;-81
2022/02/24 08:43:28;;;;;;;1.40;1.05;;;18.60;42.60;;;;;;5020448;28;20682;-82
2022/02/24 08:45:54;;;;;;;4.07;1.20;;;18.50;42.50;;;;;;5021109;28;20178;-81
2022/02/24 08:48:24;;;;;;;1.65;1.10;;;18.60;42.50;;;;;;5054921;28;20201;-81
2022/02/24 08:50:57;;;;;;;2.72;1.10;;;18.60;43.30;;;;;;5005475;28;20188;-80
2022/02/24 08:53:32;;;;;;;3.10;1.48;;;18.60;42.50;;;;;;5020805;28;20203;-80
2022/02/24 08:56:04;;;;;;;1.80;0.95;;;18.60;42.60;;;;;;5038896;28;20180;-82
2022/02/24 08:58:35;;;;;;;2.65;1.10;;;18.50;42.70;;;;;;5022913;28;20752;-81
2022/02/24 09:01:01;;;;;;;1.45;1.25;;;18.60;42.70;;;;;;5022106;28;20188;-80
2022/02/24 09:03:32;;;;;;;3.50;1.33;;;18.60;42.70;;;;;;5022847;28;20209;-81
2022/02/24 09:06:01;;;;;;;3.85;1.30;;;18.60;42.60;;;;;;5038509;28;20182;-81
2022/02/24 09:08:32;;;;;;;5.13;1.23;;;18.70;42.60;;;;;;5024345;28;20185;-81
2022/02/24 09:11:02;;;;;;;5.28;1.20;;;18.60;42.50;;;;;;5010428;28;20185;-81
2022/02/24 09:13:35;;;;;;;6.47;1.40;;;18.60;42.40;;;;;;5008103;28;20177;-81
2022/02/24 09:16:05;;;;;;;8.85;1.77;;;18.70;42.30;;;;;;5005077;28;20213;-82
2022/02/24 09:18:38;;;;;;;2.80;1.15;;;18.70;42.40;;;;;;5004524;28;20213;-82
2022/02/24 09:21:09;;;;;;;3.92;1.27;;;18.60;42.30;;;;;;5037210;28;20190;-82
2022/02/24 09:23:39;;;;;;;3.58;1.40;;;18.70;42.30;;;;;;5036784;28;20185;-81
2022/02/24 09:26:13;;;;;;;1.73;1.20;;;18.70;42.30;;;;;;5019996;28;20181;-81
2022/02/24 09:28:43;;;;;;;2.97;1.30;;;18.70;42.20;;;;;;5036590;28;20181;-80
2022/02/24 09:31:08;;;;;;;5.38;1.52;;;18.80;42.20;;;;;;5019824;28;20769;-81
2022/02/24 09:33:41;;;;;;;4.15;1.25;;;18.80;42.10;;;;;;5037309;28;20170;-81
2022/02/24 09:36:06;;;;;;;5.32;1.30;;;18.80;42.10;;;;;;5020186;28;20269;-80
2022/02/24 09:38:32;;;;;;;1.55;1.13;;;18.80;42.20;;;;;;5037296;28;20280;-80
2022/02/24 09:40:59;;;;;;;3.72;1.25;;;18.70;42.10;;;;;;5052941;28;20193;-81
2022/02/24 09:43:27;;;;;;;3.25;1.33;;;18.70;42.20;;;;;;5013651;28;20183;-80
2022/02/24 09:45:58;;;;;;;5.40;1.70;;;18.70;42.10;;;;;;4996593;28;20192;-81
2022/02/24 09:48:28;;;;;;;1.38;1.13;;;18.70;42.30;;;;;;4980368;28;20258;-81
2022/02/24 09:50:54;;;;;;;2.35;1.20;;;18.70;42.30;;;;;;4997174;28;20226;-81
2022/02/24 09:53:19;;;;;;;5.32;1.67;;;18.70;42.30;;;;;;4963632;28;20262;-80
2022/02/24 09:55:46;;;;;;;2.63;1.23;;;18.80;42.20;;;;;;4967339;28;20171;-81
2022/02/24 09:58:13;;;;;;;2.63;1.10;;;18.80;42.30;;;;;;4999048;28;20222;-81
2022/02/24 10:00:45;;;;;;;3.50;1.30;;;18.70;42.30;;;;;;4966473;28;20167;-80
2022/02/24 10:03:29;;;;;;;3.00;1.20;;;18.70;42.20;;;;;;4963888;28;20187;-80
2022/02/24 10:05:55;;;;;;;1.83;1.17;;;18.70;42.30;;;;;;4997644;28;20171;-81
2022/02/24 10:08:28;;;;;;;2.13;1.25;;;18.80;42.30;;;;;;4982755;28;20682;-80
2022/02/24 10:10:54;;;;;;;4.18;1.30;;;18.80;42.10;;;;;;4999069;28;20238;-81
2022/02/24 10:13:20;;;;;;;5.35;1.40;;;18.80;42.00;;;;;;5002060;28;20156;-80
2022/02/24 10:16:02;;;;;;;2.42;1.35;;;18.80;42.10;;;;;;5056158;28;20185;-80
2022/02/24 10:18:30;;;;;;;1.80;1.10;;;18.80;42.00;;;;;;5057597;28;20189;-81
2022/02/24 10:21:00;;;;;;;5.95;1.30;;;18.80;41.90;;;;;;5057705;28;20174;-81
2022/02/24 10:23:32;;;;;;;1.85;1.20;;;18.80;42.00;;;;;;5040030;28;20175;-80
2022/02/24 10:26:04;;;;;;;1.52;1.10;;;18.80;42.00;;;;;;5056383;28;20201;-79
2022/02/24 10:28:45;;;;;;;3.75;1.20;;;18.80;42.00;;;;;;5040621;28;20162;-82
2022/02/24 10:31:24;;;;;;;1.42;1.30;;;18.90;42.10;;;;;;5057390;28;20229;-79
2022/02/24 10:33:51;;;;;;;4.55;1.35;;;18.80;42.10;;;;;;5042027;28;20160;-80
2022/02/24 10:36:20;;;;;;;2.78;1.30;;;18.80;42.00;;;;;;5057816;28;20237;-82
2022/02/24 10:39:05;;;;;;;5.20;1.30;;;18.90;42.20;;;;;;5040876;28;20205;-80
2022/02/24 10:41:33;;;;;;;2.65;1.30;;;18.90;42.90;;;;;;5040966;28;20159;-81
2022/02/24 10:44:24;;;;;;;3.13;1.20;;;18.90;42.30;;;;;;5035088;28;20182;-81
2022/02/24 10:47:10;;;;;;;2.13;1.10;;;18.90;42.40;;;;;;5020366;28;20166;-80
2022/02/24 10:49:39;;;;;;;4.22;1.15;;;18.80;42.30;;;;;;5003816;28;20575;-81
2022/02/24 10:52:11;;;;;;;1.75;1.20;;;18.90;42.40;;;;;;4979432;28;20195;-81
2022/02/24 10:54:37;;;;;;;1.75;1.38;;;18.90;42.20;;;;;;4978487;28;20192;-81
2022/02/24 10:57:25;;;;;;;4.35;1.40;;;18.80;42.30;;;;;;4978254;28;20761;-82
2022/02/24 10:59:52;;;;;;;1.63;1.10;;;18.80;42.40;;;;;;4986068;28;20242;-81
2022/02/24 11:02:18;;;;;;;3.70;1.27;;;18.80;42.40;;;;;;4980793;28;20218;-82
2022/02/24 11:04:44;;;;;;;2.97;1.40;;;18.80;42.40;;;;;;4962103;28;20217;-82
2022/02/24 11:07:11;;;;;;;3.60;1.40;;;18.90;42.50;;;;;;4962318;28;20211;-81
2022/02/24 11:09:37;;;;;;;4.00;1.27;;;18.80;42.40;;;;;;4994372;28;20207;-81
2022/02/24 11:12:05;;;;;;;3.13;1.27;;;18.80;42.40;;;;;;4962036;28;20188;-82
2022/02/24 11:14:31;;;;;;;2.60;1.30;;;18.80;42.40;;;;;;4991088;28;20171;-82
2022/02/24 11:16:56;;;;;;;1.10;1.00;;;18.80;42.30;;;;;;5017678;28;20221;-82
2022/02/24 11:19:22;;;;;;;1.45;1.08;;;18.90;42.40;;;;;;5034618;28;20602;-82
2022/02/24 11:21:48;;;;;;;1.30;0.98;;;18.90;42.40;;;;;;5021397;28;20193;-82
2022/02/24 11:24:13;;;;;;;1.48;1.10;;;18.80;42.30;;;;;;5075543;28;20185;-83
2022/02/24 11:26:53;;;;;;;2.13;1.35;;;18.80;42.30;;;;;;5076331;28;20158;-82
2022/02/24 11:29:37;;;;;;;2.17;1.10;;;18.80;42.40;;;;;;5075517;28;20161;-82
2022/02/24 11:32:09;;;;;;;1.23;1.13;;;18.80;42.30;;;;;;5074587;28;20361;-82
2022/02/24 11:34:54;;;;;;;1.75;1.30;;;18.90;42.50;;;;;;5074399;28;20156;-83
2022/02/24 11:37:26;;;;;;;3.45;1.20;;;18.80;42.30;;;;;;5074347;28;20189;-82
2022/02/24 11:39:57;;;;;;;1.35;1.23;;;18.90;42.40;;;;;;5042931;28;20180;-81
2022/02/24 11:42:24;;;;;;;1.58;1.20;;;18.80;42.30;;;;;;5076558;28;20608;-82
2022/02/24 11:44:51;;;;;;;1.23;1.13;;;18.80;42.50;;;;;;5040984;28;20292;-81
2022/02/24 11:47:17;;;;;;;1.85;1.23;;;18.80;42.30;;;;;;5020904;28;20239;-82
2022/02/24 11:50:04;;;;;;;2.47;1.20;;;18.80;42.30;;;;;;5021484;28;20563;-82
2022/02/24 11:52:34;;;;;;;1.27;1.02;;;18.80;42.30;;;;;;5038676;28;20544;-82
2022/02/24 11:55:00;;;;;;;1.40;1.30;;;18.90;42.10;;;;;;5022050;28;20198;-81
2022/02/24 11:57:30;;;;;;;2.72;1.08;;;18.80;42.20;;;;;;5038877;28;20209;-82
2022/02/24 11:59:56;;;;;;;1.17;1.08;;;18.90;42.20;;;;;;5039891;28;20185;-81
2022/02/24 12:02:42;;;;;;;1.27;1.17;;;18.90;42.20;;;;;;5041754;28;20256;-81
2022/02/24 12:05:28;;;;;;;2.10;1.40;;;18.90;42.40;;;;;;5057749;28;20174;-82
2022/02/24 12:08:04;;;;;;;2.05;1.48;;;18.90;42.40;;;;;;5026044;28;20240;-84
2022/02/24 12:10:46;;;;;;;2.00;1.35;;;18.80;42.40;;;;;;5008878;28;20185;-86
2022/02/24 12:13:31;;;;;;;2.17;1.05;;;18.80;42.40;;;;;;5042269;28;20178;-84
2022/02/24 12:16:15;;;;;;;2.92;1.55;;;19.00;42.40;;;;;;5026749;28;20549;-84
2022/02/24 12:18:41;;;;;;;1.75;1.27;;;18.90;42.40;;;;;;5043462;28;20587;-85
2022/02/24 12:21:31;;;;;;;2.80;1.10;;;18.80;42.40;;;;;;5028143;28;20165;-85
2022/02/24 12:24:01;;;;;;;2.22;1.42;;;18.90;42.50;;;;;;5045518;28;20182;-85
2022/02/24 12:26:45;;;;;;;2.00;1.40;;;18.90;42.50;;;;;;5009993;28;20173;-84
2022/02/24 12:29:37;;;;;;;1.45;1.30;;;18.80;42.50;;;;;;5024072;28;20192;-83
2022/02/24 12:32:05;;;;;;;4.30;1.40;;;18.90;42.60;;;;;;5042258;28;20221;-83
2022/02/24 12:34:31;;;;;;;3.65;1.20;;;18.80;42.60;;;;;;5023610;28;20186;-86
2022/02/24 12:37:05;;;;;;;2.78;1.20;;;18.80;42.60;;;;;;5025517;28;20253;-86
2022/02/24 12:39:34;;;;;;;1.75;1.35;;;18.90;42.70;;;;;;5052576;28;20184;-85
2022/02/24 12:42:01;;;;;;;3.00;1.27;;;18.90;42.60;;;;;;5041160;28;20169;-85
2022/02/24 12:44:27;;;;;;;1.42;1.20;;;18.90;42.50;;;;;;5024130;28;20226;-84
2022/02/24 12:46:52;;;;;;;2.05;1.27;;;19.00;42.50;;;;;;5027761;28;20246;-84
2022/02/24 12:49:20;;;;;;;1.50;1.13;;;19.00;42.50;;;;;;5041928;28;20218;-85
2022/02/24 12:51:46;;;;;;;1.35;1.17;;;19.00;42.60;;;;;;5060080;28;20250;-86
2022/02/24 12:54:13;;;;;;;1.13;1.02;;;18.90;42.50;;;;;;5040791;28;20238;-84